Jonesboro Municipal Airport
KJBR : now visible

Airfield :











YOU CAN JOIN US ON...

 
LOGIN :

Register | Disclaimer

   EN    FR    IT 

 









Legend :    VFR   Marginal VFR   IFR   Intensive IFR   Very Intensive IFR
Visi :
Ceiling :
>= 8 km
>= 3000ft
5 to 8 km
1000 to 3000 ft
1500m to 5 km
500 to 1000 ft
800 to 1500m
200 to 500 ft
< 800m
< 200 ft
Symbols :   Thunderstorms  Fog  Heavy snow  Heavy precipitations  Wind > 20 kt






- Airport Elevation : 262 ft
- IATA code : JBR


KJBR - Jonesboro Municipal

CURRENT METAR :
  • 281053Z AUTO 00000KT 7SM CLR 04/03 A2995 RMK AO2 SLP142 T00440033 $

EXPIRED METARs :
  • 280953Z AUTO 00000KT 9SM CLR 06/04 A2994 RMK AO2 SLP139 T00560044 $
  • 280853Z AUTO 00000KT 10SM OVC038 06/05 A2994 RMK AO2 SLP140 T00610050 51006 $

TAF KJBR
Valid from the 28 at 06:00 until the 29 at 06:00 UTC


280536Z 2806/2906 30005KT P6SM SKC
FM281500 22006KT P6SM SKC
FM290000 16004KT P6SM SKC
KZME FIR / North America



MET'MAP, your aeronautical weather chart ! - Copyright ORBIFLY December 2007 - Disclaimer

ORBIFLY MET'MAP TEAM :

Programming & Development : Alexandra Zaïnal
Original concept : Baudouin d'Aumeries
Technical & hardware support : Manuel Goepfert
Assistance : Marc-Olivier Méhu




SOURCES & CREDITS :

   NOAA       Earth
Advisory